Time;durP1;ratioP1;P1;durP2;ratioP2;P2;SDS_P1;SDS_P2;PMS_P1;PMS_P2;Temp;Humidity;BMP_temperature;BMP_pressure;BME280_temperature;BME280_humidity;BME280_pressure;Samples;Min_cycle;Max_cycle;Signal;HPM_P1;HPM_P2
2023/03/18 00:01:25;;;;;;;14.60;5.37;;;4.00;99.90;;;;;;4798623;29;20211;-77
2023/03/18 00:03:52;;;;;;;12.87;6.00;;;4.00;99.90;;;;;;4791550;29;20282;-76
2023/03/18 00:06:20;;;;;;;11.07;5.80;;;4.00;99.90;;;;;;4791304;29;20272;-74
2023/03/18 00:08:49;;;;;;;10.93;5.33;;;4.00;99.90;;;;;;4807577;29;20211;-76
2023/03/18 00:11:18;;;;;;;13.13;5.50;;;3.90;99.90;;;;;;4790894;29;20773;-72
2023/03/18 00:13:46;;;;;;;11.27;5.40;;;4.00;99.90;;;;;;4807440;29;20201;-72
2023/03/18 00:16:14;;;;;;;13.37;5.60;;;3.90;99.90;;;;;;4790962;29;20208;-72
2023/03/18 00:18:41;;;;;;;12.50;5.23;;;3.90;99.90;;;;;;4791335;29;20238;-74
2023/03/18 00:21:08;;;;;;;11.73;5.57;;;3.90;99.90;;;;;;4791462;29;20217;-75
2023/03/18 00:23:35;;;;;;;10.70;5.00;;;3.90;99.90;;;;;;4807226;29;20240;-73
2023/03/18 00:26:03;;;;;;;11.73;4.93;;;3.90;99.90;;;;;;4790751;29;20620;-74
2023/03/18 00:28:31;;;;;;;11.10;5.23;;;3.90;99.90;;;;;;4790946;29;20273;-73
2023/03/18 00:31:08;;;;;;;11.37;4.90;;;3.90;99.90;;;;;;4807637;29;20520;-76
2023/03/18 00:33:38;;;;;;;14.20;5.03;;;3.80;99.90;;;;;;4807175;29;20209;-75
2023/03/18 00:36:08;;;;;;;10.50;4.90;;;3.80;99.90;;;;;;4807068;29;20302;-74
2023/03/18 00:38:36;;;;;;;10.43;5.30;;;3.80;99.90;;;;;;4806855;29;20203;-75
2023/03/18 00:41:10;;;;;;;11.70;5.00;;;3.80;99.90;;;;;;4790644;29;20755;-70
2023/03/18 00:43:51;;;;;;;9.53;5.37;;;3.80;99.90;;;;;;4791022;29;20631;-72
2023/03/18 00:46:19;;;;;;;8.93;4.73;;;3.80;99.90;;;;;;4806844;29;20682;-71
2023/03/18 00:48:46;;;;;;;10.30;4.70;;;3.70;99.90;;;;;;4806800;29;20200;-73
2023/03/18 00:51:16;;;;;;;9.80;4.87;;;3.70;99.90;;;;;;4790222;29;20594;-71
2023/03/18 00:53:47;;;;;;;11.00;4.73;;;3.70;99.90;;;;;;4790397;29;20212;-71
2023/03/18 00:56:17;;;;;;;11.07;4.90;;;3.70;99.90;;;;;;4790566;29;20209;-72
2023/03/18 00:58:45;;;;;;;11.97;4.77;;;3.60;99.90;;;;;;4790632;29;20208;-72
2023/03/18 01:01:13;;;;;;;12.77;4.47;;;3.70;99.90;;;;;;4799315;29;20222;-73
2023/03/18 01:03:41;;;;;;;9.43;4.53;;;3.60;99.90;;;;;;4808398;29;20227;-75
2023/03/18 01:06:14;;;;;;;12.10;4.70;;;3.70;99.90;;;;;;4808154;29;20573;-73
2023/03/18 01:08:41;;;;;;;8.60;4.43;;;3.60;99.90;;;;;;4808324;29;20210;-73
2023/03/18 01:11:08;;;;;;;13.93;4.87;;;3.60;99.90;;;;;;4807929;29;20232;-74
2023/03/18 01:13:36;;;;;;;10.10;4.30;;;3.60;99.90;;;;;;4808402;29;20218;-75
2023/03/18 01:16:05;;;;;;;9.77;4.70;;;3.60;99.90;;;;;;4808386;29;20215;-78
2023/03/18 01:18:33;;;;;;;14.23;5.00;;;3.60;99.90;;;;;;4808202;29;20211;-74
2023/03/18 01:21:00;;;;;;;9.87;4.70;;;3.50;99.90;;;;;;4808383;29;20203;-76
2023/03/18 01:23:29;;;;;;;8.73;4.40;;;3.50;99.90;;;;;;4807793;29;20237;-76
2023/03/18 01:25:57;;;;;;;10.57;5.00;;;3.50;99.90;;;;;;4824711;29;20202;-75
2023/03/18 01:28:26;;;;;;;9.83;4.40;;;3.50;99.90;;;;;;4808099;29;20195;-76
2023/03/18 01:30:54;;;;;;;8.77;4.60;;;3.40;99.90;;;;;;4807830;29;20207;-76
2023/03/18 01:33:21;;;;;;;11.47;4.63;;;3.40;99.90;;;;;;4824430;29;20573;-75
2023/03/18 01:35:58;;;;;;;10.87;4.70;;;3.40;99.90;;;;;;4808008;29;20215;-76
2023/03/18 01:38:37;;;;;;;9.43;4.33;;;3.40;99.90;;;;;;4807639;29;20207;-75
2023/03/18 01:41:07;;;;;;;10.17;4.43;;;3.40;99.90;;;;;;4792909;29;20204;-77
2023/03/18 01:43:37;;;;;;;7.93;4.00;;;3.40;99.90;;;;;;4807763;29;20222;-76
2023/03/18 01:46:37;;;;;;;8.70;4.03;;;3.40;99.90;;;;;;4807684;29;20203;-75
2023/03/18 01:49:12;;;;;;;7.90;4.07;;;3.40;99.90;;;;;;4807879;29;20307;-77
2023/03/18 01:51:42;;;;;;;10.33;4.30;;;3.40;99.90;;;;;;4807921;29;20223;-76
2023/03/18 01:54:11;;;;;;;9.10;4.27;;;3.40;99.90;;;;;;4807878;29;20335;-77
2023/03/18 01:56:40;;;;;;;8.17;4.00;;;3.40;99.90;;;;;;4807279;29;20213;-77
2023/03/18 01:59:10;;;;;;;9.97;3.73;;;3.40;99.90;;;;;;4823673;29;20214;-78
2023/03/18 02:02:00;;;;;;;9.60;3.93;;;3.40;99.90;;;;;;4795383;29;20209;-74
2023/03/18 02:04:32;;;;;;;9.43;3.93;;;3.30;99.90;;;;;;4789220;29;20234;-75
2023/03/18 02:07:02;;;;;;;12.30;4.03;;;3.30;99.90;;;;;;4789165;29;20200;-75
2023/03/18 02:09:45;;;;;;;8.60;3.80;;;3.40;99.90;;;;;;4787918;29;20215;-73
2023/03/18 02:12:16;;;;;;;10.87;4.27;;;3.40;99.90;;;;;;4789206;29;20234;-74
2023/03/18 02:14:43;;;;;;;7.33;3.77;;;3.40;99.90;;;;;;4788950;29;20208;-74
2023/03/18 02:17:39;;;;;;;5.40;3.70;;;3.40;99.90;;;;;;4789483;29;20219;-72
2023/03/18 02:20:24;;;;;;;9.53;3.80;;;3.40;99.90;;;;;;4781574;29;20203;-73
2023/03/18 02:23:05;;;;;;;11.37;3.90;;;3.40;99.90;;;;;;4788780;29;20235;-74
2023/03/18 02:25:54;;;;;;;8.63;4.00;;;3.40;99.90;;;;;;4789301;29;20210;-74
2023/03/18 02:28:26;;;;;;;8.23;3.60;;;3.40;99.90;;;;;;4789175;29;20195;-74
2023/03/18 02:30:57;;;;;;;10.23;3.63;;;3.40;99.90;;;;;;4789098;29;20209;-74
2023/03/18 02:33:30;;;;;;;7.13;3.50;;;3.40;99.90;;;;;;4788866;29;20204;-75
2023/03/18 02:36:03;;;;;;;7.20;3.40;;;3.40;99.90;;;;;;4789146;29;20238;-75
2023/03/18 02:38:30;;;;;;;9.67;3.50;;;3.40;99.90;;;;;;4788845;29;20214;-75
2023/03/18 02:40:57;;;;;;;8.40;3.60;;;3.40;99.90;;;;;;4789046;29;20218;-74
2023/03/18 02:43:26;;;;;;;9.27;3.40;;;3.50;99.90;;;;;;4788760;29;20235;-74
2023/03/18 02:46:08;;;;;;;10.00;3.67;;;3.50;99.90;;;;;;4788961;29;20609;-73
2023/03/18 02:48:39;;;;;;;7.07;3.33;;;3.40;99.90;;;;;;4788820;29;20209;-75
2023/03/18 02:51:07;;;;;;;8.47;3.70;;;3.40;99.90;;;;;;4804812;29;20239;-74
2023/03/18 02:53:36;;;;;;;7.60;3.20;;;3.40;99.90;;;;;;4788988;29;20210;-74
2023/03/18 02:56:04;;;;;;;7.63;3.10;;;3.40;99.90;;;;;;4805280;29;20208;-73
2023/03/18 02:58:32;;;;;;;6.50;2.87;;;3.40;99.90;;;;;;4788706;29;20211;-74
2023/03/18 03:00:59;;;;;;;6.50;3.17;;;3.40;99.90;;;;;;4812369;29;20685;-73
2023/03/18 03:03:26;;;;;;;7.23;3.00;;;3.50;99.90;;;;;;4823265;29;20227;-72
2023/03/18 03:05:53;;;;;;;6.10;3.17;;;3.50;99.90;;;;;;4806719;29;20299;-73
2023/03/18 03:08:21;;;;;;;5.77;2.63;;;3.50;99.90;;;;;;4807054;29;20655;-73
2023/03/18 03:10:49;;;;;;;9.83;3.40;;;3.50;99.90;;;;;;4806488;29;20559;-72
2023/03/18 03:13:17;;;;;;;7.83;3.20;;;3.40;99.90;;;;;;4806740;29;20201;-73
2023/03/18 03:15:44;;;;;;;6.47;3.10;;;3.40;99.90;;;;;;4806686;29;20203;-74
2023/03/18 03:18:11;;;;;;;5.50;3.00;;;3.40;99.90;;;;;;4806799;29;20203;-73
2023/03/18 03:20:38;;;;;;;6.57;3.00;;;3.40;99.90;;;;;;4807078;29;20215;-73
2023/03/18 03:23:11;;;;;;;7.03;3.27;;;3.40;99.90;;;;;;4806452;29;20332;-73
2023/03/18 03:25:39;;;;;;;7.57;3.00;;;3.40;99.90;;;;;;4806758;29;20207;-74
2023/03/18 03:28:07;;;;;;;6.17;3.10;;;3.40;99.90;;;;;;4823057;29;20651;-74
2023/03/18 03:30:35;;;;;;;9.10;3.17;;;3.30;99.90;;;;;;4806464;29;20238;-73
2023/03/18 03:33:03;;;;;;;6.57;3.20;;;3.30;99.90;;;;;;4825588;29;20218;-73
2023/03/18 03:35:31;;;;;;;9.33;3.40;;;3.30;99.90;;;;;;4826067;29;20240;-73
2023/03/18 03:37:58;;;;;;;6.20;3.47;;;3.30;99.90;;;;;;4809915;29;20257;-75
2023/03/18 03:40:26;;;;;;;7.40;3.03;;;3.30;99.90;;;;;;4809787;29;20210;-73
2023/03/18 03:42:53;;;;;;;6.77;3.20;;;3.30;99.90;;;;;;4809671;29;20230;-73
2023/03/18 03:45:20;;;;;;;6.67;3.27;;;3.30;99.90;;;;;;4809671;29;20200;-72
2023/03/18 03:47:48;;;;;;;7.27;3.63;;;3.30;99.90;;;;;;4809589;29;20208;-72
2023/03/18 03:50:16;;;;;;;8.70;3.60;;;3.20;99.90;;;;;;4798221;29;20246;-74
2023/03/18 03:52:44;;;;;;;7.67;3.27;;;3.20;99.90;;;;;;4789749;29;20199;-72
2023/03/18 03:55:14;;;;;;;7.63;2.97;;;3.20;99.90;;;;;;4790029;29;20197;-73
2023/03/18 03:57:41;;;;;;;9.20;3.03;;;3.10;99.90;;;;;;4788877;30;20197;-73
2023/03/18 04:00:15;;;;;;;9.73;3.13;;;3.20;99.90;;;;;;4776266;30;20298;-72
2023/03/18 04:02:43;;;;;;;6.47;3.30;;;3.10;99.90;;;;;;4770681;30;20240;-74
2023/03/18 04:05:13;;;;;;;7.13;3.10;;;3.10;99.90;;;;;;4770611;30;20300;-74
2023/03/18 04:07:40;;;;;;;9.43;3.40;;;3.10;99.90;;;;;;4770456;30;20300;-74
2023/03/18 04:10:09;;;;;;;8.70;3.50;;;3.10;99.90;;;;;;4770835;30;20215;-75
2023/03/18 04:12:37;;;;;;;6.67;2.90;;;3.10;99.90;;;;;;4771866;30;20232;-74
2023/03/18 04:15:09;;;;;;;8.17;2.93;;;3.10;99.90;;;;;;4771404;30;20626;-74
2023/03/18 04:17:37;;;;;;;7.67;3.10;;;3.10;99.90;;;;;;4771589;30;20597;-75
2023/03/18 04:20:04;;;;;;;5.30;2.87;;;3.00;99.90;;;;;;4770383;30;20202;-74
2023/03/18 04:22:31;;;;;;;7.27;3.00;;;3.00;99.90;;;;;;4770528;30;20559;-75
2023/03/18 04:24:59;;;;;;;8.07;3.00;;;3.00;99.90;;;;;;4770007;30;20211;-74
2023/03/18 04:27:27;;;;;;;6.93;3.07;;;3.10;99.90;;;;;;4771573;30;20198;-73
2023/03/18 04:29:53;;;;;;;7.37;3.40;;;3.00;99.90;;;;;;4769906;30;20205;-74
2023/03/18 04:32:20;;;;;;;6.40;2.83;;;3.10;99.90;;;;;;4770042;30;20208;-73
2023/03/18 04:34:47;;;;;;;10.87;3.00;;;3.10;99.90;;;;;;4771554;30;20211;-74
2023/03/18 04:37:18;;;;;;;8.17;3.30;;;3.10;99.90;;;;;;4770089;30;20205;-74
2023/03/18 04:39:47;;;;;;;7.97;3.10;;;3.00;99.90;;;;;;4770024;30;20225;-74
2023/03/18 04:42:15;;;;;;;6.33;2.70;;;3.00;99.90;;;;;;4769901;30;20205;-75
2023/03/18 04:44:42;;;;;;;6.93;3.03;;;3.00;99.90;;;;;;4769074;30;20229;-75
2023/03/18 04:47:09;;;;;;;6.50;3.20;;;3.00;99.90;;;;;;4770000;30;20209;-75
2023/03/18 04:49:36;;;;;;;7.13;2.90;;;3.00;99.90;;;;;;4773191;30;20313;-75
2023/03/18 04:52:04;;;;;;;7.10;3.20;;;3.00;99.90;;;;;;4787905;30;20205;-75
2023/03/18 04:54:31;;;;;;;5.93;2.80;;;3.00;99.90;;;;;;4787794;30;20220;-75
2023/03/18 04:56:58;;;;;;;8.07;2.90;;;3.00;99.90;;;;;;4789127;30;20235;-75
2023/03/18 04:59:25;;;;;;;5.60;2.80;;;3.00;99.90;;;;;;4787222;30;20220;-74
2023/03/18 05:16:32;;;;;;;7.13;3.60;;;2.90;99.90;;;;;;5088907;27;21084;-75
2023/03/18 05:18:59;;;;;;;8.33;3.30;;;3.00;99.90;;;;;;5087197;28;20286;-75
2023/03/18 05:21:26;;;;;;;6.53;3.27;;;3.00;99.90;;;;;;5088865;28;20218;-82
2023/03/18 05:23:56;;;;;;;6.40;3.37;;;3.00;99.90;;;;;;5088492;28;20193;-74
2023/03/18 05:26:23;;;;;;;7.03;3.10;;;3.00;99.90;;;;;;5087682;28;20259;-72
2023/03/18 05:28:51;;;;;;;6.93;3.30;;;2.90;99.90;;;;;;5087530;28;20182;-72
2023/03/18 05:31:18;;;;;;;8.60;3.10;;;3.00;99.90;;;;;;5088947;28;20202;-74
2023/03/18 05:33:45;;;;;;;8.17;3.30;;;3.00;99.90;;;;;;5087211;28;20224;-74
2023/03/18 05:36:13;;;;;;;7.33;3.23;;;3.10;99.90;;;;;;5070287;28;20199;-73
2023/03/18 05:38:40;;;;;;;8.00;3.17;;;3.00;99.90;;;;;;5087285;28;20200;-73
2023/03/18 05:41:07;;;;;;;5.77;2.90;;;3.10;99.90;;;;;;5086983;28;20206;-73
2023/03/18 05:43:33;;;;;;;8.03;3.47;;;3.10;99.90;;;;;;5087441;28;20191;-73
2023/03/18 05:46:00;;;;;;;8.50;3.20;;;3.10;99.90;;;;;;5086742;28;20221;-69
2023/03/18 05:48:27;;;;;;;10.13;3.37;;;3.10;99.90;;;;;;5088110;28;20269;-70
2023/03/18 05:50:54;;;;;;;7.50;3.17;;;3.10;99.90;;;;;;5086613;28;20210;-75
2023/03/18 05:53:21;;;;;;;6.70;3.07;;;3.10;99.90;;;;;;5088555;28;20190;-77
2023/03/18 05:55:49;;;;;;;8.60;3.47;;;3.10;99.90;;;;;;5086654;28;20205;-73
2023/03/18 05:58:16;;;;;;;8.90;3.40;;;3.20;99.90;;;;;;5087964;28;20189;-73
2023/03/18 06:00:44;;;;;;;7.70;3.20;;;3.30;99.90;;;;;;5087232;28;20210;-73
2023/03/18 06:03:11;;;;;;;6.67;3.30;;;3.30;99.90;;;;;;5086839;28;20212;-70
2023/03/18 06:05:38;;;;;;;8.53;3.33;;;3.30;99.90;;;;;;5086495;28;20319;-72
2023/03/18 06:08:05;;;;;;;7.80;3.27;;;3.40;99.90;;;;;;5086451;28;20666;-72
2023/03/18 06:10:32;;;;;;;6.67;3.23;;;3.50;99.90;;;;;;5086896;28;20227;-73
2023/03/18 06:13:00;;;;;;;5.30;2.73;;;3.60;99.90;;;;;;5086438;28;20194;-71
2023/03/18 06:15:27;;;;;;;9.00;2.93;;;3.70;99.90;;;;;;5085735;28;20595;-72
2023/03/18 06:17:54;;;;;;;6.67;3.23;;;3.90;99.90;;;;;;5074054;28;20193;-71
2023/03/18 06:20:21;;;;;;;6.73;2.77;;;3.90;99.90;;;;;;5072733;28;20210;-71
2023/03/18 06:22:48;;;;;;;6.27;3.13;;;4.00;99.90;;;;;;5073282;28;20196;-71
2023/03/18 06:25:18;;;;;;;6.60;2.80;;;4.10;99.90;;;;;;5073934;28;20281;-72
2023/03/18 06:27:46;;;;;;;5.97;2.90;;;4.20;99.90;;;;;;5074269;28;20230;-71
2023/03/18 06:30:15;;;;;;;6.07;3.07;;;4.30;99.90;;;;;;5072724;28;20643;-75
2023/03/18 06:32:42;;;;;;;9.10;3.30;;;4.40;99.90;;;;;;5072452;28;20196;-72
2023/03/18 06:35:10;;;;;;;9.73;3.13;;;4.50;99.90;;;;;;5072390;28;20199;-72
2023/03/18 06:37:38;;;;;;;4.93;2.90;;;4.60;99.90;;;;;;5074025;28;20199;-73
2023/03/18 06:40:07;;;;;;;6.33;2.83;;;4.70;99.90;;;;;;5074210;28;20619;-74
2023/03/18 06:42:34;;;;;;;6.50;2.70;;;4.80;99.90;;;;;;5072480;28;20561;-73
2023/03/18 06:45:01;;;;;;;8.73;3.07;;;4.90;99.90;;;;;;5074087;28;20245;-75
2023/03/18 06:47:28;;;;;;;5.30;2.70;;;5.00;99.90;;;;;;5072359;28;20598;-74
2023/03/18 06:49:55;;;;;;;4.90;2.60;;;5.10;99.90;;;;;;5072298;28;20207;-75
2023/03/18 06:52:22;;;;;;;8.97;2.90;;;5.20;99.90;;;;;;5072404;28;20225;-74
2023/03/18 06:54:50;;;;;;;5.77;2.60;;;5.10;99.90;;;;;;5073609;28;20205;-73
2023/03/18 06:57:17;;;;;;;5.77;2.73;;;5.10;99.90;;;;;;5073465;28;20191;-74
2023/03/18 06:59:45;;;;;;;8.63;2.93;;;5.10;99.90;;;;;;5072275;28;20193;-75
2023/03/18 07:02:12;;;;;;;5.53;2.70;;;5.30;99.90;;;;;;5073947;28;20201;-75
2023/03/18 07:04:39;;;;;;;7.17;2.90;;;5.40;99.90;;;;;;5050721;22;20716;-76
2023/03/18 07:07:07;;;;;;;6.60;2.87;;;5.50;99.90;;;;;;5013326;28;20278;-75
2023/03/18 07:09:35;;;;;;;5.63;2.80;;;5.40;99.90;;;;;;5012270;28;20202;-74
2023/03/18 07:12:02;;;;;;;5.07;2.70;;;5.50;99.90;;;;;;5012261;28;20206;-75
2023/03/18 07:14:29;;;;;;;7.27;2.90;;;5.60;99.90;;;;;;5012002;28;20324;-74
2023/03/18 07:16:56;;;;;;;6.87;2.70;;;5.70;99.90;;;;;;5013514;28;20184;-74
2023/03/18 07:19:23;;;;;;;5.17;2.90;;;5.80;99.90;;;;;;5012571;28;20249;-74
2023/03/18 07:21:50;;;;;;;6.80;2.80;;;6.00;99.90;;;;;;5012264;28;20567;-75
2023/03/18 07:24:19;;;;;;;5.13;2.70;;;6.00;99.90;;;;;;5012030;28;20211;-72
2023/03/18 07:26:49;;;;;;;7.83;3.50;;;6.00;99.90;;;;;;5013404;28;20207;-74
2023/03/18 07:29:16;;;;;;;6.10;2.70;;;6.00;99.90;;;;;;5010980;28;20204;-74
2023/03/18 07:31:43;;;;;;;7.47;2.80;;;6.10;99.90;;;;;;5011825;28;20218;-75
2023/03/18 07:34:12;;;;;;;7.27;2.73;;;6.20;99.90;;;;;;5012216;28;20209;-75
2023/03/18 07:36:39;;;;;;;6.03;3.00;;;6.30;99.80;;;;;;5013186;28;20209;-74
2023/03/18 07:39:08;;;;;;;5.97;2.97;;;6.30;99.90;;;;;;5011677;28;20278;-74
2023/03/18 07:41:35;;;;;;;5.50;3.00;;;6.50;98.90;;;;;;5013980;28;20231;-74
2023/03/18 07:44:06;;;;;;;5.90;2.87;;;6.40;98.00;;;;;;5011811;28;20207;-73
2023/03/18 07:46:33;;;;;;;7.37;2.77;;;6.30;98.40;;;;;;5011873;28;20235;-74
2023/03/18 07:49:00;;;;;;;6.90;3.10;;;6.40;98.50;;;;;;5011449;28;20202;-74
2023/03/18 07:51:27;;;;;;;9.17;3.17;;;6.40;97.30;;;;;;5011527;28;20210;-73
2023/03/18 07:53:54;;;;;;;6.93;3.10;;;6.40;97.40;;;;;;5011743;28;20536;-73
2023/03/18 07:56:21;;;;;;;8.60;3.03;;;6.50;97.90;;;;;;5012944;28;20214;-73
2023/03/18 07:58:48;;;;;;;5.80;2.77;;;6.60;97.50;;;;;;5011226;28;20200;-73
2023/03/18 08:01:17;;;;;;;7.30;2.83;;;6.70;97.20;;;;;;5012534;28;20545;-74
2023/03/18 08:03:45;;;;;;;7.43;2.97;;;6.80;97.70;;;;;;5011145;28;20265;-73
2023/03/18 08:06:14;;;;;;;5.83;2.83;;;6.90;97.30;;;;;;5010863;28;20319;-74
2023/03/18 08:08:41;;;;;;;7.00;3.17;;;7.00;96.40;;;;;;5011255;28;20291;-74
2023/03/18 08:11:09;;;;;;;6.87;3.17;;;7.00;95.60;;;;;;5011253;28;20202;-73
2023/03/18 08:13:37;;;;;;;8.03;3.40;;;7.00;96.20;;;;;;5012482;28;20645;-75
2023/03/18 08:16:05;;;;;;;6.07;2.93;;;7.10;95.80;;;;;;5011333;28;20213;-74
2023/03/18 08:18:32;;;;;;;7.60;3.40;;;7.20;95.90;;;;;;5012222;28;20218;-74
2023/03/18 08:20:59;;;;;;;5.13;2.90;;;7.10;95.80;;;;;;5012253;28;20188;-74
2023/03/18 08:23:26;;;;;;;5.40;3.10;;;7.30;95.60;;;;;;5012065;28;20237;-75
2023/03/18 08:25:53;;;;;;;6.40;3.10;;;7.80;94.30;;;;;;4994479;28;20231;-74
2023/03/18 08:28:20;;;;;;;4.63;2.83;;;8.70;92.00;;;;;;5010729;28;20282;-74
2023/03/18 08:30:47;;;;;;;5.50;2.77;;;9.40;90.40;;;;;;5012230;28;20242;-74
2023/03/18 08:33:14;;;;;;;6.60;3.13;;;9.80;86.60;;;;;;5010484;28;20551;-74
2023/03/18 08:35:41;;;;;;;6.13;2.87;;;9.90;82.90;;;;;;5012084;28;20538;-75
2023/03/18 08:38:08;;;;;;;6.47;2.97;;;10.00;81.10;;;;;;5012476;28;20192;-76
2023/03/18 08:40:35;;;;;;;6.20;3.03;;;10.00;79.10;;;;;;5009475;28;20212;-77
2023/03/18 08:43:02;;;;;;;7.00;3.00;;;10.00;77.70;;;;;;5008885;28;20200;-77
2023/03/18 08:45:29;;;;;;;7.00;3.17;;;9.80;79.50;;;;;;5009069;28;20983;-75
2023/03/18 08:47:57;;;;;;;6.47;2.80;;;9.90;78.40;;;;;;5010437;28;20212;-75
2023/03/18 08:50:27;;;;;;;5.70;2.83;;;10.20;81.20;;;;;;5010636;28;20196;-75
2023/03/18 08:52:58;;;;;;;8.97;3.10;;;10.60;79.10;;;;;;5012273;28;20224;-75
2023/03/18 08:55:31;;;;;;;7.40;2.87;;;11.00;77.60;;;;;;5013043;28;20188;-75
2023/03/18 08:57:59;;;;;;;6.93;2.73;;;11.20;73.70;;;;;;5010565;28;20203;-75
2023/03/18 09:00:27;;;;;;;6.07;2.60;;;11.20;72.90;;;;;;5011609;28;20416;-77
2023/03/18 09:02:53;;;;;;;6.20;3.00;;;11.30;73.20;;;;;;5011401;28;20196;-78
2023/03/18 09:05:21;;;;;;;6.43;2.70;;;11.30;70.60;;;;;;5010288;28;20579;-78
2023/03/18 09:07:47;;;;;;;6.57;2.70;;;11.40;70.60;;;;;;5009884;28;20231;-77
2023/03/18 09:10:16;;;;;;;5.47;2.83;;;11.40;70.30;;;;;;5010350;28;20200;-76
2023/03/18 09:12:44;;;;;;;7.80;2.87;;;11.60;70.40;;;;;;5010432;28;20334;-76
2023/03/18 09:15:17;;;;;;;5.50;2.90;;;11.50;68.50;;;;;;5010520;28;20207;-80
2023/03/18 09:17:44;;;;;;;7.80;2.90;;;11.70;68.90;;;;;;5012354;28;20192;-77
2023/03/18 09:20:31;;;;;;;7.27;2.90;;;11.80;69.10;;;;;;5010450;28;20247;-76
2023/03/18 09:22:59;;;;;;;6.77;3.10;;;11.50;67.30;;;;;;5010600;28;20555;-76
2023/03/18 09:25:26;;;;;;;5.90;2.67;;;11.30;68.20;;;;;;5011642;28;20223;-77
2023/03/18 09:27:53;;;;;;;6.10;2.87;;;11.50;68.20;;;;;;5010363;28;20214;-77
2023/03/18 09:30:20;;;;;;;5.97;2.90;;;12.00;69.00;;;;;;5010452;28;20204;-79
2023/03/18 09:32:47;;;;;;;5.47;3.03;;;12.00;66.10;;;;;;5009581;28;20203;-78
2023/03/18 09:35:15;;;;;;;7.43;2.97;;;12.10;66.20;;;;;;5010381;28;20200;-79
2023/03/18 09:37:43;;;;;;;6.17;2.90;;;12.00;66.20;;;;;;5010356;28;20196;-80
2023/03/18 09:40:29;;;;;;;6.97;2.67;;;12.00;66.10;;;;;;5010868;28;20235;-77
2023/03/18 09:43:06;;;;;;;10.33;3.23;;;12.30;65.60;;;;;;5009954;28;20200;-77
2023/03/18 09:45:43;;;;;;;8.57;3.30;;;12.40;66.40;;;;;;5010032;28;20219;-77
2023/03/18 09:48:43;;;;;;;6.80;3.00;;;12.80;66.30;;;;;;5010075;28;20192;-77
2023/03/18 09:51:29;;;;;;;5.80;2.97;;;13.20;64.80;;;;;;5010971;28;20713;-77
2023/03/18 09:54:13;;;;;;;4.80;2.77;;;13.80;63.90;;;;;;5015441;28;20656;-78
2023/03/18 09:56:41;;;;;;;7.83;3.33;;;14.00;60.80;;;;;;5013617;28;20220;-79
2023/03/18 09:59:39;;;;;;;7.63;2.90;;;13.90;61.70;;;;;;5479415;23;20248;-79
2023/03/18 10:02:17;;;;;;;6.50;2.83;;;14.10;60.50;;;;;;5034560;28;20188;-78
2023/03/18 10:04:51;;;;;;;6.53;3.00;;;14.00;59.50;;;;;;5016786;28;20207;-77
2023/03/18 10:07:24;;;;;;;4.87;2.70;;;14.00;60.00;;;;;;4996973;28;20752;-75
2023/03/18 10:09:54;;;;;;;5.97;3.00;;;14.30;59.80;;;;;;4996997;28;20203;-75
2023/03/18 10:12:46;;;;;;;7.03;3.20;;;14.70;59.30;;;;;;5013439;28;20268;-78
2023/03/18 10:16:00;;;;;;;6.33;3.10;;;14.90;58.20;;;;;;4996479;28;20691;-76
2023/03/18 10:18:36;;;;;;;8.07;3.17;;;15.00;57.90;;;;;;4995012;28;20200;-74
2023/03/18 10:21:06;;;;;;;6.93;3.10;;;14.90;56.60;;;;;;4996917;28;20210;-76
2023/03/18 10:24:15;;;;;;;6.57;2.80;;;14.30;58.50;;;;;;5012922;28;20204;-76
2023/03/18 10:27:07;;;;;;;5.83;2.90;;;14.30;58.30;;;;;;4996870;28;20220;-75
2023/03/18 10:29:50;;;;;;;7.03;2.97;;;14.60;58.20;;;;;;5014217;28;20287;-75
2023/03/18 10:32:25;;;;;;;7.10;3.33;;;15.00;57.50;;;;;;5012039;28;20431;-73
2023/03/18 10:35:25;;;;;;;8.17;3.03;;;14.90;56.60;;;;;;5013116;28;20618;-70
2023/03/18 10:38:09;;;;;;;7.03;3.20;;;14.60;56.60;;;;;;4996521;28;20686;-72
2023/03/18 10:40:40;;;;;;;5.77;3.03;;;14.50;56.80;;;;;;5014155;28;20644;-72
2023/03/18 10:43:25;;;;;;;5.47;2.97;;;14.40;57.10;;;;;;4996512;28;20643;-72
2023/03/18 10:46:02;;;;;;;9.57;3.20;;;14.20;56.90;;;;;;4980260;28;20220;-72
2023/03/18 10:48:37;;;;;;;6.73;3.00;;;14.10;56.80;;;;;;4996265;28;20207;-72
2023/03/18 10:51:17;;;;;;;6.53;3.20;;;14.30;57.60;;;;;;5012626;28;20247;-69
2023/03/18 10:54:01;;;;;;;6.50;2.90;;;14.50;57.70;;;;;;4980222;28;20240;-71
2023/03/18 10:56:29;;;;;;;6.90;3.30;;;15.00;57.40;;;;;;5012623;28;20211;-71
2023/03/18 10:58:57;;;;;;;6.90;3.00;;;15.40;55.90;;;;;;5013117;28;20279;-70
2023/03/18 11:01:27;;;;;;;8.33;3.00;;;15.80;55.30;;;;;;4995315;28;20769;-78
2023/03/18 11:04:05;;;;;;;6.73;3.03;;;15.70;54.30;;;;;;5012150;28;20603;-77
2023/03/18 11:06:43;;;;;;;6.60;2.80;;;15.90;54.70;;;;;;5013301;28;20204;-79
2023/03/18 11:09:17;;;;;;;5.50;2.73;;;16.30;54.10;;;;;;5013894;28;20268;-75
2023/03/18 11:11:49;;;;;;;8.85;3.47;;;16.20;53.10;;;;;;4996921;28;20445;-74
2023/03/18 11:14:21;;;;;;;5.57;3.00;;;16.30;53.70;;;;;;5017569;28;20435;-75
2023/03/18 11:16:59;;;;;;;5.70;2.73;;;16.40;52.20;;;;;;4995534;28;20230;-77
2023/03/18 11:19:31;;;;;;;6.87;2.73;;;16.40;52.80;;;;;;5013540;28;20665;-73
2023/03/18 11:22:18;;;;;;;11.73;3.23;;;16.10;52.30;;;;;;4995489;28;20212;-74
2023/03/18 11:24:45;;;;;;;6.85;3.35;;;16.50;52.20;;;;;;5012511;28;20444;-75
2023/03/18 11:27:15;;;;;;;7.47;2.90;;;16.60;52.90;;;;;;4979617;28;20220;-72
2023/03/18 11:29:53;;;;;;;8.67;2.80;;;17.20;51.80;;;;;;4979518;28;20311;-75
2023/03/18 11:32:24;;;;;;;9.07;3.40;;;17.30;50.50;;;;;;4995367;28;20764;-84
2023/03/18 11:34:57;;;;;;;6.60;3.00;;;17.50;50.40;;;;;;5012754;28;20231;-83
2023/03/18 11:37:32;;;;;;;7.73;3.17;;;17.00;49.80;;;;;;5012381;28;20315;-80
2023/03/18 11:40:28;;;;;;;6.30;3.03;;;17.00;50.60;;;;;;5011557;28;20199;-73
2023/03/18 11:43:20;;;;;;;7.53;3.40;;;17.50;50.10;;;;;;5011927;28;20532;-76
2023/03/18 11:46:03;;;;;;;5.43;3.03;;;17.70;49.70;;;;;;5011680;28;20200;-79
2023/03/18 11:48:35;;;;;;;7.07;3.10;;;18.40;49.50;;;;;;5010809;28;20575;-81
2023/03/18 11:51:25;;;;;;;6.27;2.77;;;18.20;47.90;;;;;;4995354;28;20661;-76
2023/03/18 11:54:20;;;;;;;5.90;2.90;;;18.30;47.40;;;;;;4998681;28;20200;-77
2023/03/18 11:57:19;;;;;;;6.37;3.20;;;18.60;48.30;;;;;;4971924;28;20696;-78
2023/03/18 11:59:48;;;;;;;8.50;3.13;;;19.20;46.00;;;;;;4971656;28;20234;-76
2023/03/18 12:02:46;;;;;;;7.47;3.43;;;19.20;46.10;;;;;;4971565;28;20209;-75
2023/03/18 12:05:28;;;;;;;6.53;2.83;;;19.60;45.70;;;;;;4933308;29;20199;-84
2023/03/18 12:08:16;;;;;;;8.73;3.43;;;19.80;45.40;;;;;;4933992;29;20269;-75
2023/03/18 12:10:50;;;;;;;4.73;2.80;;;19.10;44.50;;;;;;4935916;29;20199;-74
2023/03/18 12:13:31;;;;;;;7.50;2.90;;;18.60;45.80;;;;;;4917036;29;20207;-75
2023/03/18 12:16:22;;;;;;;5.43;3.10;;;18.90;45.50;;;;;;4934047;29;20622;-72
2023/03/18 12:18:53;;;;;;;7.17;3.13;;;18.70;45.90;;;;;;4935516;29;20198;-76
2023/03/18 12:21:44;;;;;;;6.27;3.07;;;18.40;46.40;;;;;;4950644;29;20242;-74
2023/03/18 12:24:26;;;;;;;6.33;3.37;;;18.60;46.40;;;;;;4970087;28;20197;-75
2023/03/18 12:27:12;;;;;;;6.33;3.20;;;19.20;46.00;;;;;;4916961;29;20212;-74
2023/03/18 12:30:18;;;;;;;6.10;3.20;;;19.80;45.30;;;;;;4917543;29;20294;-74
2023/03/18 12:32:57;;;;;;;5.40;2.97;;;20.30;45.00;;;;;;4894635;29;20216;-75
2023/03/18 12:36:06;;;;;;;7.25;3.85;;;19.80;44.40;;;;;;4947504;29;20535;-76
2023/03/18 12:39:21;;;;;;;5.07;2.90;;;19.50;44.40;;;;;;4953036;29;20201;-84
2023/03/18 12:42:09;;;;;;;6.50;3.47;;;19.70;44.80;;;;;;4899636;29;20219;-80
2023/03/18 12:44:57;;;;;;;7.20;3.78;;;19.90;45.10;;;;;;4912918;29;20491;-84
2023/03/18 12:47:50;;;;;;;6.57;3.47;;;20.40;44.00;;;;;;4875795;29;20247;-79
2023/03/18 12:50:27;;;;;;;8.40;4.00;;;20.40;43.80;;;;;;4894101;29;20496;-81
2023/03/18 12:53:01;;;;;;;7.50;3.43;;;19.80;44.40;;;;;;4914391;29;20672;-75
2023/03/18 12:55:40;;;;;;;5.60;3.30;;;19.50;44.60;;;;;;4897818;29;20212;-71
2023/03/18 12:58:18;;;;;;;7.00;3.60;;;18.70;44.90;;;;;;4913532;29;20692;-73
2023/03/18 13:01:05;;;;;;;6.67;3.17;;;18.30;45.90;;;;;;4913341;29;20329;-80
2023/03/18 13:03:39;;;;;;;11.17;3.50;;;18.30;46.30;;;;;;4913743;29;20509;-88
2023/03/18 13:06:42;;;;;;;6.00;3.20;;;18.70;45.80;;;;;;4914828;29;20227;-83
2023/03/18 13:09:38;;;;;;;6.37;3.07;;;19.20;45.20;;;;;;4909025;29;20306;-74
2023/03/18 13:12:13;;;;;;;7.70;3.00;;;19.20;44.70;;;;;;4914025;29;20237;-73
2023/03/18 13:15:09;;;;;;;5.73;3.00;;;19.20;45.30;;;;;;4898099;29;20209;-76
2023/03/18 13:17:41;;;;;;;4.83;2.83;;;18.80;45.40;;;;;;4933158;28;20291;-74
2023/03/18 13:20:21;;;;;;;6.13;3.20;;;19.00;45.50;;;;;;4955079;28;20627;-77
2023/03/18 13:22:55;;;;;;;6.03;3.17;;;19.30;44.70;;;;;;4972188;28;20201;-76
2023/03/18 13:25:46;;;;;;;6.67;3.30;;;18.80;44.80;;;;;;4955542;28;20670;-87
2023/03/18 13:28:36;;;;;;;9.30;3.90;;;18.50;45.60;;;;;;4959458;28;20498;-75
2023/03/18 13:31:33;;;;;;;8.32;3.20;;;18.30;46.70;;;;;;4958608;28;20450;-72
2023/03/18 13:34:31;;;;;;;7.47;3.00;;;17.40;46.60;;;;;;4974775;28;20205;-76
2023/03/18 13:37:16;;;;;;;4.57;3.23;;;17.10;47.70;;;;;;4958661;28;20239;-77